Time;durP1;ratioP1;P1;durP2;ratioP2;P2;SDS_P1;SDS_P2;PMS_P1;PMS_P2;Temp;Humidity;BMP_temperature;BMP_pressure;BME280_temperature;BME280_humidity;BME280_pressure;Samples;Min_cycle;Max_cycle;Signal;HPM_P1;HPM_P2
2020/12/05 00:00:59;;;;;;;7.63;6.10;;;2.70;99.90;;;;;;5015407;28;20663;-75
2020/12/05 00:03:25;;;;;;;9.40;7.10;;;2.80;99.90;;;;;;5030738;28;20443;-75
2020/12/05 00:05:52;;;;;;;7.10;6.15;;;2.50;99.90;;;;;;5017898;28;20206;-75
2020/12/05 00:08:20;;;;;;;9.00;6.72;;;2.50;99.90;;;;;;5017561;28;20203;-75
2020/12/05 00:10:46;;;;;;;14.77;7.15;;;2.60;99.90;;;;;;5017537;28;20645;-75
2020/12/05 00:13:12;;;;;;;9.23;6.80;;;2.50;99.90;;;;;;5033149;28;20185;-75
2020/12/05 00:15:38;;;;;;;14.85;9.45;;;2.70;99.90;;;;;;5034715;28;20201;-75
2020/12/05 00:18:04;;;;;;;12.83;9.30;;;2.50;99.90;;;;;;5016999;28;20170;-75
2020/12/05 00:20:30;;;;;;;15.05;10.00;;;2.70;99.90;;;;;;5014471;28;20413;-75
2020/12/05 00:22:56;;;;;;;11.83;8.83;;;2.60;99.90;;;;;;5013778;28;20169;-75
2020/12/05 00:25:22;;;;;;;12.80;9.45;;;2.60;99.90;;;;;;5033034;28;20455;-75
2020/12/05 00:27:48;;;;;;;17.10;9.57;;;2.50;99.90;;;;;;5033291;28;20283;-75
2020/12/05 00:30:16;;;;;;;16.08;9.23;;;2.60;99.90;;;;;;5033091;28;20173;-75
2020/12/05 00:32:42;;;;;;;11.48;8.48;;;2.40;99.90;;;;;;5017208;28;20173;-75
2020/12/05 00:35:11;;;;;;;12.20;7.83;;;2.60;99.90;;;;;;5016244;28;20251;-75
2020/12/05 00:37:37;;;;;;;11.82;7.93;;;2.40;99.90;;;;;;5034393;28;20463;-75
2020/12/05 00:40:05;;;;;;;11.95;8.43;;;2.60;99.90;;;;;;5033000;28;20617;-75
2020/12/05 00:42:31;;;;;;;11.00;6.85;;;2.60;99.90;;;;;;5049718;28;20228;-76
2020/12/05 00:44:57;;;;;;;10.50;7.57;;;2.50;99.90;;;;;;5031041;28;20567;-75
2020/12/05 00:47:23;;;;;;;8.63;7.40;;;2.50;99.90;;;;;;5036398;28;20184;-75
2020/12/05 00:49:49;;;;;;;10.88;8.25;;;2.50;99.90;;;;;;5018428;28;20244;-75
2020/12/05 00:52:15;;;;;;;11.27;7.65;;;2.70;99.90;;;;;;5031520;28;20193;-75
2020/12/05 00:54:41;;;;;;;9.43;7.63;;;2.70;99.90;;;;;;5000088;28;20686;-75
2020/12/05 00:57:07;;;;;;;10.98;7.30;;;2.70;99.90;;;;;;5045800;28;20280;-76
2020/12/05 00:59:36;;;;;;;9.80;6.40;;;2.60;99.90;;;;;;5013113;28;20253;-76
2020/12/05 01:02:06;;;;;;;8.70;5.90;;;2.60;99.90;;;;;;5031788;28;20482;-76
2020/12/05 01:04:32;;;;;;;8.57;7.03;;;2.50;99.90;;;;;;5032875;28;20228;-76
2020/12/05 01:07:00;;;;;;;9.80;7.30;;;2.80;99.90;;;;;;5032981;28;20669;-76
2020/12/05 01:09:26;;;;;;;8.23;6.40;;;2.70;99.90;;;;;;5032867;28;20404;-76
2020/12/05 01:11:52;;;;;;;7.80;6.53;;;2.50;99.90;;;;;;5032429;28;20196;-75
2020/12/05 01:14:21;;;;;;;10.57;7.50;;;2.70;99.90;;;;;;5032162;28;20884;-75
2020/12/05 01:16:47;;;;;;;8.57;6.85;;;2.50;99.90;;;;;;5016033;28;20463;-76
2020/12/05 01:19:15;;;;;;;7.53;6.50;;;2.70;99.90;;;;;;5033642;28;20173;-76
2020/12/05 01:21:45;;;;;;;8.07;6.70;;;2.60;99.90;;;;;;5027856;28;20166;-76
2020/12/05 01:24:12;;;;;;;11.05;7.00;;;2.60;99.90;;;;;;5012790;28;21030;-76
2020/12/05 01:26:40;;;;;;;9.02;7.35;;;2.60;99.90;;;;;;5037719;28;20185;-76
2020/12/05 01:29:06;;;;;;;11.48;8.48;;;2.50;99.90;;;;;;5049105;28;20557;-75
2020/12/05 01:31:34;;;;;;;11.73;7.68;;;2.60;99.90;;;;;;5015799;28;20264;-76
2020/12/05 01:34:02;;;;;;;11.75;8.45;;;2.70;99.90;;;;;;5048865;28;20655;-76
2020/12/05 01:36:30;;;;;;;10.05;7.47;;;2.80;99.90;;;;;;5032446;28;20251;-76
2020/12/05 01:38:56;;;;;;;9.13;6.32;;;2.70;99.90;;;;;;5033242;28;20177;-76
2020/12/05 01:41:22;;;;;;;10.15;6.78;;;2.70;99.90;;;;;;5033299;28;20169;-76
2020/12/05 01:43:50;;;;;;;11.02;6.47;;;2.70;99.90;;;;;;5028066;28;20570;-76
2020/12/05 01:46:37;;;;;;;10.50;7.65;;;2.50;99.90;;;;;;5020816;28;20193;-76
2020/12/05 01:49:06;;;;;;;8.95;6.93;;;2.50;99.90;;;;;;5033280;28;20597;-76
2020/12/05 01:51:38;;;;;;;10.10;7.13;;;2.60;99.90;;;;;;5031792;28;20667;-75
2020/12/05 01:54:07;;;;;;;12.07;7.30;;;2.70;99.90;;;;;;5032935;28;20192;-76
2020/12/05 01:56:35;;;;;;;10.82;7.00;;;2.60;99.90;;;;;;5032894;28;20201;-76
2020/12/05 01:59:02;;;;;;;8.40;6.43;;;2.50;99.90;;;;;;5031825;28;20206;-76
2020/12/05 02:01:28;;;;;;;8.43;6.38;;;2.70;99.90;;;;;;5015399;28;20249;-76
2020/12/05 02:03:59;;;;;;;7.70;6.60;;;2.70;99.90;;;;;;5048715;28;20180;-75
2020/12/05 02:06:39;;;;;;;12.57;7.13;;;2.70;99.90;;;;;;5014514;28;20193;-74
2020/12/05 02:09:14;;;;;;;9.68;7.03;;;2.80;99.90;;;;;;5047728;28;20177;-74
2020/12/05 02:11:48;;;;;;;12.43;6.47;;;2.50;99.90;;;;;;5012895;28;20178;-74
2020/12/05 02:14:18;;;;;;;8.75;6.45;;;2.60;99.90;;;;;;5011626;28;20691;-74
2020/12/05 02:16:49;;;;;;;7.65;6.25;;;2.60;99.90;;;;;;5012676;28;20241;-75
2020/12/05 02:19:18;;;;;;;9.55;6.60;;;2.60;99.90;;;;;;5011754;28;20253;-76
2020/12/05 02:21:48;;;;;;;9.35;7.20;;;2.80;99.90;;;;;;5023070;28;20599;-74
2020/12/05 02:24:14;;;;;;;7.50;5.95;;;2.70;99.90;;;;;;5033305;28;20220;-74
2020/12/05 02:26:43;;;;;;;9.15;6.20;;;2.80;99.90;;;;;;5035036;28;20207;-74
2020/12/05 02:29:10;;;;;;;9.77;7.85;;;2.60;99.90;;;;;;5036323;28;20610;-74
2020/12/05 02:31:37;;;;;;;9.50;6.28;;;2.60;99.90;;;;;;5016799;28;20217;-74
2020/12/05 02:34:04;;;;;;;9.15;6.78;;;2.70;99.90;;;;;;5021707;28;20263;-74
2020/12/05 02:36:36;;;;;;;8.88;6.20;;;2.80;99.90;;;;;;5017937;28;20231;-74
2020/12/05 02:39:10;;;;;;;8.85;7.10;;;2.70;99.90;;;;;;5039155;28;20731;-74
2020/12/05 02:41:38;;;;;;;10.40;7.47;;;3.00;99.90;;;;;;5028330;28;20569;-74
2020/12/05 02:44:06;;;;;;;11.00;7.00;;;2.80;99.90;;;;;;5031453;28;20197;-74
2020/12/05 02:46:33;;;;;;;8.75;6.78;;;2.90;99.90;;;;;;5029599;28;20583;-74
2020/12/05 02:48:59;;;;;;;8.95;6.78;;;3.00;99.90;;;;;;5015021;28;20170;-75
2020/12/05 02:51:26;;;;;;;8.63;7.30;;;2.90;99.90;;;;;;5014357;28;20222;-75
2020/12/05 02:53:56;;;;;;;9.55;7.72;;;2.90;99.90;;;;;;5014965;28;20170;-75
2020/12/05 02:56:22;;;;;;;9.73;7.57;;;2.80;99.90;;;;;;5043355;28;20233;-74
2020/12/05 02:58:51;;;;;;;9.60;6.50;;;2.90;99.90;;;;;;5051075;28;20168;-74
2020/12/05 03:01:21;;;;;;;8.30;5.53;;;2.80;99.90;;;;;;4992697;28;20234;-74
2020/12/05 03:03:47;;;;;;;8.00;6.57;;;2.80;99.90;;;;;;5050767;28;20803;-74
2020/12/05 03:06:13;;;;;;;7.20;6.40;;;2.50;99.90;;;;;;5034863;28;20260;-74
2020/12/05 03:08:39;;;;;;;10.70;6.53;;;3.10;99.90;;;;;;5035437;28;20431;-74
2020/12/05 03:11:05;;;;;;;13.57;7.63;;;2.90;99.90;;;;;;5018453;28;20178;-74
2020/12/05 03:13:31;;;;;;;9.43;6.90;;;2.90;99.90;;;;;;5015537;28;20404;-74
2020/12/05 03:15:57;;;;;;;9.57;6.95;;;2.90;99.90;;;;;;4997926;28;20464;-74
2020/12/05 03:18:23;;;;;;;9.10;6.90;;;2.90;99.90;;;;;;5031012;28;20576;-74
2020/12/05 03:20:48;;;;;;;9.63;7.07;;;2.90;99.90;;;;;;5025177;28;20439;-74
2020/12/05 03:23:14;;;;;;;10.30;7.40;;;3.00;99.90;;;;;;5017646;28;20868;-74
2020/12/05 03:25:40;;;;;;;9.20;6.90;;;3.00;99.90;;;;;;5032942;28;20449;-74
2020/12/05 03:28:09;;;;;;;10.93;6.97;;;3.10;99.90;;;;;;5017537;28;20450;-74
2020/12/05 03:30:35;;;;;;;8.47;6.20;;;3.10;99.90;;;;;;5033911;28;20206;-74
2020/12/05 03:33:01;;;;;;;8.88;7.20;;;3.00;99.90;;;;;;5034194;28;20416;-74
2020/12/05 03:35:28;;;;;;;9.85;6.68;;;3.20;99.90;;;;;;5033851;28;20204;-74
2020/12/05 03:37:54;;;;;;;10.85;6.38;;;3.00;99.90;;;;;;5033960;28;20300;-74
2020/12/05 03:40:23;;;;;;;9.25;6.85;;;3.10;99.90;;;;;;5035276;28;20193;-74
2020/12/05 03:42:49;;;;;;;11.27;7.03;;;3.10;99.90;;;;;;5005737;28;20623;-74
2020/12/05 03:45:17;;;;;;;9.23;7.20;;;3.20;99.90;;;;;;4997761;28;20312;-74
2020/12/05 03:47:43;;;;;;;11.05;6.70;;;3.30;99.90;;;;;;5041794;28;20470;-74
2020/12/05 03:50:12;;;;;;;8.77;6.40;;;3.10;99.90;;;;;;5034427;28;20276;-74
2020/12/05 03:52:38;;;;;;;11.68;7.57;;;3.30;99.90;;;;;;5006710;28;20472;-74
2020/12/05 03:55:04;;;;;;;7.50;6.70;;;3.20;99.90;;;;;;4997381;28;20591;-74
2020/12/05 03:57:30;;;;;;;8.45;6.97;;;3.10;99.90;;;;;;5040511;28;20466;-74
2020/12/05 03:59:56;;;;;;;7.63;6.40;;;3.10;99.90;;;;;;5054366;28;20164;-74
2020/12/05 04:02:22;;;;;;;12.20;6.90;;;3.10;99.90;;;;;;5019679;28;20627;-74
2020/12/05 04:04:48;;;;;;;6.23;5.70;;;3.30;99.90;;;;;;5016878;28;21037;-74
2020/12/05 04:07:16;;;;;;;8.97;7.43;;;3.10;99.90;;;;;;5001698;28;20512;-74
2020/12/05 04:09:44;;;;;;;9.13;6.53;;;3.20;99.90;;;;;;5000501;28;20944;-74
2020/12/05 04:12:10;;;;;;;7.07;6.47;;;3.30;99.90;;;;;;5013433;28;20190;-74
2020/12/05 04:14:36;;;;;;;7.13;6.43;;;3.20;99.90;;;;;;5025167;28;20451;-74
2020/12/05 04:17:06;;;;;;;8.05;6.10;;;3.30;99.90;;;;;;5033101;28;20471;-74
2020/12/05 04:19:32;;;;;;;8.43;6.43;;;3.20;99.90;;;;;;5031118;28;20169;-74
2020/12/05 04:22:02;;;;;;;6.40;5.78;;;3.20;99.90;;;;;;5034506;28;20161;-74
2020/12/05 04:24:28;;;;;;;9.20;6.43;;;3.20;99.90;;;;;;5006378;28;20209;-74
2020/12/05 04:26:53;;;;;;;8.50;6.53;;;3.30;99.90;;;;;;5016828;28;20526;-74
2020/12/05 04:29:19;;;;;;;8.27;6.60;;;3.40;99.90;;;;;;4999777;28;20888;-74
2020/12/05 04:31:45;;;;;;;12.70;7.70;;;3.10;99.90;;;;;;5004472;28;20942;-74
2020/12/05 04:34:11;;;;;;;7.30;6.17;;;3.30;99.90;;;;;;4996910;28;20786;-74
2020/12/05 04:36:37;;;;;;;10.05;7.82;;;3.20;99.90;;;;;;5014555;28;20464;-74
2020/12/05 04:39:04;;;;;;;13.60;7.30;;;3.20;99.90;;;;;;5014215;28;20178;-74
2020/12/05 04:41:32;;;;;;;8.77;7.13;;;3.50;99.90;;;;;;5014275;28;20261;-74
2020/12/05 04:43:59;;;;;;;8.00;7.00;;;3.30;99.90;;;;;;4964150;28;20166;-74
2020/12/05 04:46:27;;;;;;;10.68;7.45;;;3.30;99.90;;;;;;5033274;28;20251;-74
2020/12/05 04:48:54;;;;;;;10.10;7.13;;;3.20;99.90;;;;;;5016164;28;20184;-74
2020/12/05 04:51:21;;;;;;;8.00;6.97;;;3.30;99.90;;;;;;5025018;28;20236;-74
2020/12/05 04:53:52;;;;;;;7.68;6.28;;;3.40;99.90;;;;;;4996118;28;20182;-74
2020/12/05 04:56:18;;;;;;;9.60;7.50;;;3.30;99.90;;;;;;5027795;28;20216;-74
2020/12/05 04:58:49;;;;;;;9.80;7.18;;;3.20;99.90;;;;;;5015811;28;20173;-74
2020/12/05 05:01:19;;;;;;;7.82;6.72;;;3.10;99.90;;;;;;4983481;28;20201;-74
2020/12/05 05:03:45;;;;;;;8.38;6.95;;;3.20;99.90;;;;;;5018545;28;20270;-74
2020/12/05 05:06:21;;;;;;;8.18;6.80;;;3.20;99.90;;;;;;5032962;28;20255;-74
2020/12/05 05:08:49;;;;;;;8.98;7.30;;;3.20;99.90;;;;;;5010027;28;20655;-74
2020/12/05 05:11:17;;;;;;;8.80;7.90;;;3.10;99.90;;;;;;5013316;28;20178;-74
2020/12/05 05:13:59;;;;;;;12.73;8.02;;;3.30;99.90;;;;;;4999387;28;20773;-74
2020/12/05 05:16:27;;;;;;;11.23;7.90;;;3.30;99.90;;;;;;4999156;28;20212;-74
2020/12/05 05:18:53;;;;;;;9.60;7.47;;;3.10;99.90;;;;;;5014570;28;20257;-74
2020/12/05 05:21:41;;;;;;;11.63;7.93;;;3.10;99.90;;;;;;5003950;28;20219;-74
2020/12/05 05:24:15;;;;;;;13.57;9.07;;;3.20;99.90;;;;;;5032896;28;20224;-74
2020/12/05 05:26:43;;;;;;;13.52;9.85;;;3.40;99.90;;;;;;5015276;28;20189;-74
2020/12/05 05:29:32;;;;;;;14.95;9.90;;;3.50;99.90;;;;;;5032304;28;20188;-74
2020/12/05 05:32:11;;;;;;;15.38;11.38;;;3.60;99.90;;;;;;5009917;28;20195;-74
2020/12/05 05:34:38;;;;;;;23.52;15.50;;;3.40;99.90;;;;;;5052947;28;20685;-74
2020/12/05 05:37:17;;;;;;;23.15;14.40;;;3.60;99.90;;;;;;4997094;28;20288;-74
2020/12/05 05:39:50;;;;;;;23.33;15.52;;;3.70;99.90;;;;;;5013215;28;20192;-74
2020/12/05 05:42:37;;;;;;;26.40;16.80;;;3.60;99.90;;;;;;5007206;28;20170;-74
2020/12/05 05:45:18;;;;;;;28.08;18.67;;;3.80;99.90;;;;;;5015751;28;20208;-74
2020/12/05 05:47:50;;;;;;;35.80;20.50;;;3.80;99.90;;;;;;5016804;28;20182;-74
2020/12/05 05:50:23;;;;;;;29.77;18.77;;;3.80;99.90;;;;;;4967907;28;20271;-74
2020/12/05 05:52:59;;;;;;;34.40;19.10;;;3.90;99.90;;;;;;5012106;28;20198;-74
2020/12/05 05:55:46;;;;;;;27.63;19.50;;;3.90;99.90;;;;;;5012184;28;20255;-74
2020/12/05 05:58:14;;;;;;;32.53;18.48;;;4.00;99.90;;;;;;5012341;28;20265;-74
2020/12/05 06:00:42;;;;;;;25.98;18.25;;;4.00;99.90;;;;;;5042352;28;20177;-74
2020/12/05 06:03:25;;;;;;;28.20;18.40;;;4.20;99.90;;;;;;5015162;28;20646;-74
2020/12/05 06:05:57;;;;;;;35.42;19.45;;;4.20;99.90;;;;;;5047199;28;20201;-74
2020/12/05 06:08:28;;;;;;;25.90;17.85;;;4.10;99.90;;;;;;5024082;28;20513;-75
2020/12/05 06:10:59;;;;;;;34.08;19.83;;;4.10;99.90;;;;;;5012344;28;20193;-75
2020/12/05 06:13:32;;;;;;;28.42;20.08;;;4.30;99.90;;;;;;5028798;28;20166;-75
2020/12/05 06:16:04;;;;;;;29.42;18.85;;;4.20;99.90;;;;;;4995318;28;20240;-74
2020/12/05 06:18:31;;;;;;;27.65;18.95;;;4.20;99.90;;;;;;5017463;28;20193;-74
2020/12/05 06:20:59;;;;;;;31.42;19.95;;;4.20;99.90;;;;;;5035161;28;20184;-74
2020/12/05 06:23:31;;;;;;;32.22;18.88;;;4.20;99.90;;;;;;5018617;28;20673;-74
2020/12/05 06:26:01;;;;;;;33.00;20.23;;;4.20;99.90;;;;;;5029150;28;20208;-74
2020/12/05 06:28:28;;;;;;;31.17;19.45;;;4.20;99.90;;;;;;5014349;28;20192;-74
2020/12/05 06:30:54;;;;;;;34.38;19.98;;;4.20;99.90;;;;;;5013872;28;20256;-74
2020/12/05 06:33:40;;;;;;;33.70;19.83;;;4.20;99.90;;;;;;5012601;28;20181;-74
2020/12/05 06:36:39;;;;;;;34.42;20.38;;;4.20;99.90;;;;;;4996335;28;20205;-74
2020/12/05 06:39:16;;;;;;;30.08;19.98;;;4.20;99.90;;;;;;4998344;28;20208;-74
2020/12/05 06:41:45;;;;;;;32.08;18.85;;;4.20;99.90;;;;;;5041077;28;20260;-74
2020/12/05 06:44:25;;;;;;;30.95;19.23;;;4.20;99.90;;;;;;5011204;28;20289;-74
2020/12/05 06:47:03;;;;;;;33.92;20.67;;;4.10;99.90;;;;;;5060327;28;20238;-74
2020/12/05 06:49:38;;;;;;;31.23;19.70;;;4.10;99.90;;;;;;5051469;28;20169;-74
2020/12/05 06:52:24;;;;;;;28.85;18.58;;;4.10;99.90;;;;;;5012412;28;20169;-74
2020/12/05 06:55:03;;;;;;;31.85;18.40;;;4.00;99.90;;;;;;5031440;28;20654;-74
2020/12/05 06:57:30;;;;;;;25.88;17.30;;;4.00;99.90;;;;;;5013910;28;20223;-74
2020/12/05 07:00:22;;;;;;;27.85;18.40;;;4.10;99.90;;;;;;5020774;28;20178;-74
2020/12/05 07:02:50;;;;;;;31.90;19.27;;;4.00;99.90;;;;;;5012156;28;20208;-74
2020/12/05 07:05:16;;;;;;;32.17;21.13;;;4.10;99.90;;;;;;5024707;28;20710;-75
2020/12/05 07:07:43;;;;;;;36.38;22.73;;;4.00;99.90;;;;;;5031754;28;20223;-75
2020/12/05 07:10:09;;;;;;;35.78;21.30;;;4.10;99.90;;;;;;5020991;28;20177;-75
2020/12/05 07:12:36;;;;;;;36.22;21.02;;;4.10;99.90;;;;;;5015782;28;20703;-75
2020/12/05 07:15:25;;;;;;;36.80;21.13;;;4.10;99.90;;;;;;5018003;28;20237;-78
2020/12/05 07:17:57;;;;;;;38.20;22.17;;;4.10;99.90;;;;;;5015732;28;20210;-76
2020/12/05 07:20:24;;;;;;;36.10;21.80;;;4.20;99.90;;;;;;5028560;28;20184;-76
2020/12/05 07:22:55;;;;;;;34.30;19.98;;;4.20;99.90;;;;;;5017148;28;20643;-76
2020/12/05 07:25:21;;;;;;;36.42;21.30;;;4.10;99.90;;;;;;5034730;28;20208;-76
2020/12/05 07:27:48;;;;;;;31.65;20.88;;;4.20;99.90;;;;;;5013988;28;20654;-76
2020/12/05 07:30:14;;;;;;;36.15;22.33;;;4.20;99.90;;;;;;5003095;28;20610;-75
2020/12/05 07:32:43;;;;;;;36.10;22.55;;;4.10;99.90;;;;;;5016744;28;20577;-75
2020/12/05 07:35:18;;;;;;;34.20;20.13;;;4.10;99.90;;;;;;4997491;28;20705;-75
2020/12/05 07:37:45;;;;;;;33.78;20.65;;;4.10;99.90;;;;;;5015040;28;20271;-75
2020/12/05 07:40:12;;;;;;;37.92;22.65;;;4.10;99.90;;;;;;4997664;28;20213;-75
2020/12/05 07:42:42;;;;;;;34.20;20.52;;;4.00;99.90;;;;;;5022211;28;20295;-76
2020/12/05 07:45:12;;;;;;;33.25;21.42;;;4.00;99.90;;;;;;5034297;28;20208;-76
2020/12/05 07:47:40;;;;;;;31.02;19.77;;;4.10;99.90;;;;;;5032721;28;20181;-75
2020/12/05 07:50:10;;;;;;;34.00;20.88;;;4.20;99.90;;;;;;5020428;28;20307;-75
2020/12/05 07:52:38;;;;;;;27.65;18.83;;;4.10;99.90;;;;;;5017337;28;20232;-75
2020/12/05 07:55:10;;;;;;;32.15;19.05;;;4.20;99.90;;;;;;5015445;28;20236;-75
2020/12/05 07:57:37;;;;;;;35.95;19.00;;;4.20;99.90;;;;;;5019395;28;20212;-75
2020/12/05 08:00:07;;;;;;;38.22;20.80;;;4.10;99.90;;;;;;5014801;28;20226;-76
2020/12/05 08:02:35;;;;;;;36.13;20.45;;;4.20;99.90;;;;;;5014611;28;20166;-76
2020/12/05 08:05:04;;;;;;;34.03;20.48;;;4.30;99.90;;;;;;5000024;28;20265;-76
2020/12/05 08:07:37;;;;;;;38.13;22.02;;;4.30;99.90;;;;;;5032978;28;20238;-76
2020/12/05 08:10:09;;;;;;;30.55;20.50;;;4.50;99.90;;;;;;5030019;28;20177;-76
2020/12/05 08:12:46;;;;;;;31.98;21.10;;;4.40;99.90;;;;;;5013413;28;20228;-75
2020/12/05 08:15:19;;;;;;;40.55;21.92;;;4.50;99.90;;;;;;5013044;28;20205;-75
2020/12/05 08:17:46;;;;;;;32.58;19.80;;;4.50;99.90;;;;;;5013121;28;20206;-75
2020/12/05 08:20:13;;;;;;;32.53;20.33;;;4.50;99.90;;;;;;5022634;28;20606;-75
2020/12/05 08:22:42;;;;;;;30.52;20.77;;;4.60;99.90;;;;;;5032098;28;20185;-75
2020/12/05 08:25:11;;;;;;;29.85;18.98;;;4.70;99.90;;;;;;5025239;28;20256;-75
2020/12/05 08:27:40;;;;;;;30.58;17.90;;;4.60;99.90;;;;;;5048039;28;20750;-76
2020/12/05 08:30:17;;;;;;;28.08;17.85;;;4.70;99.90;;;;;;5024175;28;20702;-75
2020/12/05 08:32:43;;;;;;;27.50;18.63;;;4.80;99.90;;;;;;5041111;28;20177;-75
2020/12/05 08:35:13;;;;;;;31.70;19.23;;;4.80;99.90;;;;;;5023363;28;20268;-76
2020/12/05 08:37:42;;;;;;;26.70;17.88;;;4.90;99.90;;;;;;5012510;28;20267;-75
2020/12/05 08:40:15;;;;;;;29.55;18.15;;;4.90;99.90;;;;;;5021525;28;20173;-75
2020/12/05 08:42:48;;;;;;;27.50;16.92;;;5.00;99.90;;;;;;5033392;28;20193;-76
2020/12/05 08:45:21;;;;;;;29.95;18.55;;;5.10;99.90;;;;;;5023101;28;20205;-76
2020/12/05 08:47:57;;;;;;;31.02;19.10;;;5.20;99.90;;;;;;5012653;28;20189;-77
2020/12/05 08:50:36;;;;;;;31.73;18.88;;;5.20;99.90;;;;;;5039238;28;20303;-76
2020/12/05 08:53:10;;;;;;;29.17;18.30;;;5.30;99.90;;;;;;5033210;28;20666;-76
2020/12/05 08:55:39;;;;;;;30.42;19.33;;;5.30;99.90;;;;;;5030694;28;20352;-75
2020/12/05 08:58:07;;;;;;;26.10;17.45;;;5.40;99.90;;;;;;5049491;28;20197;-75
2020/12/05 09:00:35;;;;;;;29.20;19.27;;;5.40;99.90;;;;;;5034082;28;20182;-76
2020/12/05 09:03:02;;;;;;;28.38;17.95;;;5.50;99.90;;;;;;5036069;28;20172;-75
2020/12/05 09:05:29;;;;;;;29.42;18.40;;;5.60;99.90;;;;;;5047342;28;20197;-75
2020/12/05 09:07:57;;;;;;;31.13;18.52;;;5.70;99.90;;;;;;5050210;28;20169;-77
2020/12/05 09:10:24;;;;;;;26.80;18.05;;;5.70;99.90;;;;;;5032411;28;20181;-76
2020/12/05 09:13:06;;;;;;;27.05;17.30;;;5.70;99.90;;;;;;5017070;28;20228;-75
2020/12/05 09:15:35;;;;;;;26.00;18.60;;;5.80;99.90;;;;;;5033017;28;20225;-75
2020/12/05 09:18:03;;;;;;;27.58;17.58;;;5.80;99.90;;;;;;5033916;28;20201;-75
2020/12/05 09:20:30;;;;;;;29.52;17.60;;;5.80;99.90;;;;;;5049333;28;20177;-75
2020/12/05 09:22:59;;;;;;;26.60;17.00;;;5.80;99.90;;;;;;5066646;28;20176;-75
2020/12/05 09:25:36;;;;;;;23.23;16.70;;;5.80;99.90;;;;;;5053447;28;20363;-76
2020/12/05 09:28:10;;;;;;;25.77;15.52;;;5.80;99.90;;;;;;5043840;28;20188;-76
2020/12/05 09:30:37;;;;;;;26.05;15.10;;;5.80;99.90;;;;;;5032143;28;20559;-75
2020/12/05 09:33:11;;;;;;;21.85;14.20;;;5.90;99.90;;;;;;5015678;28;20202;-76
2020/12/05 09:35:37;;;;;;;25.48;14.63;;;5.90;99.90;;;;;;4998230;28;20209;-75
2020/12/05 09:38:04;;;;;;;19.73;13.93;;;6.00;99.90;;;;;;5033046;28;20693;-75
2020/12/05 09:40:33;;;;;;;19.85;12.77;;;6.00;99.90;;;;;;5047412;28;20696;-76
2020/12/05 09:43:04;;;;;;;18.52;12.57;;;6.00;99.90;;;;;;5051820;28;20165;-76
2020/12/05 09:45:33;;;;;;;15.80;12.40;;;6.00;99.90;;;;;;5051459;28;20250;-76
2020/12/05 09:48:00;;;;;;;15.77;11.63;;;6.10;99.90;;;;;;5052291;28;20257;-75
2020/12/05 09:50:26;;;;;;;12.85;9.18;;;6.20;99.90;;;;;;5052048;28;20217;-75
2020/12/05 09:52:57;;;;;;;14.13;8.82;;;6.20;99.90;;;;;;5035093;28;20241;-76
2020/12/05 09:55:26;;;;;;;10.23;7.22;;;6.30;99.90;;;;;;5014876;28;20606;-76
2020/12/05 09:57:52;;;;;;;8.38;6.63;;;6.30;99.90;;;;;;4996697;28;20296;-76
2020/12/05 10:00:19;;;;;;;8.80;5.63;;;6.30;99.90;;;;;;4995137;28;20205;-76
2020/12/05 10:02:45;;;;;;;7.65;5.82;;;6.50;99.90;;;;;;5011574;28;20675;-76
2020/12/05 10:05:12;;;;;;;9.68;6.03;;;6.50;99.90;;;;;;5011435;28;20671;-76
2020/12/05 10:07:42;;;;;;;7.40;6.65;;;6.50;99.90;;;;;;5011891;28;20174;-76
2020/12/05 10:10:09;;;;;;;7.72;5.88;;;6.60;99.90;;;;;;5013770;28;20196;-75
2020/12/05 10:12:36;;;;;;;6.63;5.80;;;6.60;99.90;;;;;;5032658;28;20316;-76
2020/12/05 10:15:13;;;;;;;6.57;5.63;;;6.70;99.90;;;;;;4998657;28;20207;-76
2020/12/05 10:17:42;;;;;;;9.07;6.28;;;6.70;99.90;;;;;;5032204;28;20192;-76
2020/12/05 10:20:09;;;;;;;10.50;6.35;;;6.70;99.90;;;;;;5032206;28;20181;-75
2020/12/05 10:22:37;;;;;;;6.35;5.55;;;6.70;99.90;;;;;;5027192;28;20191;-75
2020/12/05 10:25:04;;;;;;;6.25;5.40;;;6.70;99.90;;;;;;5034210;28;20223;-76
2020/12/05 10:27:38;;;;;;;6.32;5.40;;;6.80;99.90;;;;;;5051989;28;20196;-73
2020/12/05 10:30:04;;;;;;;6.38;4.82;;;6.80;99.90;;;;;;5018063;28;20179;-73
2020/12/05 10:32:30;;;;;;;3.25;2.95;;;6.70;99.90;;;;;;5034351;28;20359;-73
2020/12/05 10:34:56;;;;;;;4.18;3.53;;;6.80;99.90;;;;;;5034169;28;20284;-73
2020/12/05 10:37:22;;;;;;;3.55;3.20;;;6.80;99.90;;;;;;5052002;28;20634;-73
2020/12/05 10:39:48;;;;;;;3.30;3.00;;;6.90;99.90;;;;;;5051977;28;20164;-73
2020/12/05 10:42:17;;;;;;;3.63;3.33;;;6.90;99.90;;;;;;5033766;28;20193;-73
2020/12/05 10:44:43;;;;;;;4.68;3.65;;;6.90;99.90;;;;;;5034216;28;20200;-73
2020/12/05 10:47:14;;;;;;;3.67;3.33;;;6.90;99.90;;;;;;5018836;28;20701;-73
2020/12/05 10:49:40;;;;;;;4.85;3.70;;;6.90;99.90;;;;;;5018291;28;20213;-73
2020/12/05 10:52:06;;;;;;;3.30;3.00;;;7.00;99.90;;;;;;5043357;28;20231;-73
2020/12/05 10:54:32;;;;;;;3.88;3.47;;;7.00;99.90;;;;;;5037667;28;20205;-73
2020/12/05 10:57:00;;;;;;;3.88;3.05;;;7.10;99.90;;;;;;5033566;28;20201;-74
2020/12/05 10:59:27;;;;;;;3.60;3.30;;;7.10;99.90;;;;;;5034893;28;20170;-75
2020/12/05 11:01:55;;;;;;;7.47;3.65;;;7.20;99.90;;;;;;5050231;28;20209;-74
2020/12/05 11:04:28;;;;;;;6.65;2.70;;;7.30;99.90;;;;;;5037788;28;20200;-77
2020/12/05 11:06:55;;;;;;;4.18;3.75;;;7.40;99.90;;;;;;5017834;28;20270;-76
2020/12/05 11:09:21;;;;;;;3.47;3.13;;;7.40;99.90;;;;;;5025094;28;20178;-82
2020/12/05 11:11:47;;;;;;;8.17;3.47;;;7.40;99.90;;;;;;5031044;28;20182;-75
2020/12/05 11:14:18;;;;;;;3.83;3.53;;;7.50;99.90;;;;;;5024479;28;20450;-75
2020/12/05 11:16:44;;;;;;;4.30;3.90;;;7.50;99.90;;;;;;5050638;28;20213;-75
2020/12/05 11:19:12;;;;;;;5.60;3.53;;;7.50;99.90;;;;;;5048390;28;20264;-76
2020/12/05 11:21:43;;;;;;;3.85;3.25;;;7.40;99.90;;;;;;5033077;28;20197;-76
2020/12/05 11:24:10;;;;;;;4.32;3.00;;;7.30;99.90;;;;;;5033345;28;20200;-74
2020/12/05 11:26:39;;;;;;;3.97;3.60;;;7.30;99.90;;;;;;5029085;28;20174;-74
2020/12/05 11:29:05;;;;;;;3.88;3.47;;;7.30;99.90;;;;;;5015054;28;20236;-75
2020/12/05 11:31:31;;;;;;;3.83;3.50;;;7.20;99.90;;;;;;5016859;28;20181;-75
2020/12/05 11:33:57;;;;;;;3.40;2.75;;;7.20;99.90;;;;;;5028201;28;20666;-75
2020/12/05 11:36:27;;;;;;;3.38;2.40;;;7.20;99.90;;;;;;5014886;28;20595;-74
2020/12/05 11:38:53;;;;;;;2.90;2.70;;;7.20;99.90;;;;;;5034654;28;20196;-74
2020/12/05 11:41:20;;;;;;;3.50;3.20;;;7.20;99.90;;;;;;5028972;28;20173;-74
2020/12/05 11:43:46;;;;;;;7.55;2.88;;;7.20;99.90;;;;;;5030386;28;20183;-74
2020/12/05 11:46:19;;;;;;;3.50;3.20;;;7.30;99.90;;;;;;5014133;28;20542;-75
2020/12/05 11:48:48;;;;;;;3.05;2.75;;;7.40;99.90;;;;;;5048974;28;20177;-74
2020/12/05 11:51:16;;;;;;;4.00;3.70;;;7.30;99.90;;;;;;5032313;28;20244;-74
2020/12/05 11:53:45;;;;;;;5.18;3.33;;;7.30;99.90;;;;;;5028074;28;20185;-76
2020/12/05 11:56:14;;;;;;;3.70;3.40;;;7.20;99.90;;;;;;5024778;28;20206;-75
2020/12/05 11:58:48;;;;;;;3.45;3.15;;;7.20;99.90;;;;;;5033610;28;20173;-75
2020/12/05 12:01:15;;;;;;;5.07;3.10;;;7.30;99.90;;;;;;5018812;28;20207;-78
2020/12/05 12:03:41;;;;;;;3.47;3.03;;;7.20;99.90;;;;;;5017451;28;20475;-78
2020/12/05 12:06:19;;;;;;;4.20;2.95;;;7.20;99.90;;;;;;5052166;28;20751;-75
2020/12/05 12:08:51;;;;;;;3.53;2.85;;;7.20;99.90;;;;;;5029634;28;20186;-78
2020/12/05 12:11:20;;;;;;;3.55;3.05;;;7.20;99.90;;;;;;5067167;28;20175;-78
2020/12/05 12:13:52;;;;;;;2.78;2.58;;;7.20;99.90;;;;;;5048537;28;20185;-78
2020/12/05 12:16:23;;;;;;;3.83;2.70;;;7.20;99.90;;;;;;5050579;28;20161;-64
2020/12/05 12:18:49;;;;;;;3.13;2.90;;;7.20;99.90;;;;;;5031608;28;20188;-66
2020/12/05 12:21:23;;;;;;;3.55;3.25;;;7.10;99.90;;;;;;5033450;28;20643;-67
2020/12/05 12:23:50;;;;;;;5.35;2.13;;;7.10;99.90;;;;;;5017078;28;20319;-66
2020/12/05 12:26:17;;;;;;;2.45;2.25;;;7.10;99.90;;;;;;5033051;28;20184;-66
2020/12/05 12:28:44;;;;;;;3.08;2.67;;;7.10;99.90;;;;;;5026491;28;20287;-67
2020/12/05 12:31:11;;;;;;;4.70;2.53;;;7.10;99.90;;;;;;5013648;28;20549;-66
2020/12/05 12:33:38;;;;;;;3.28;1.98;;;7.20;99.90;;;;;;5040526;28;20186;-66
2020/12/05 12:36:05;;;;;;;3.47;2.40;;;7.20;99.90;;;;;;5048979;28;20209;-66
2020/12/05 12:38:31;;;;;;;2.22;2.03;;;7.20;99.90;;;;;;5013650;28;20184;-67
2020/12/05 12:40:57;;;;;;;3.40;3.10;;;7.20;99.90;;;;;;5020517;28;20204;-66
2020/12/05 12:43:26;;;;;;;3.30;2.58;;;7.20;99.90;;;;;;5033874;28;20653;-67
2020/12/05 12:45:54;;;;;;;3.70;1.95;;;7.20;99.90;;;;;;5045893;28;20361;-66
2020/12/05 12:50:49;;;;;;;2.70;2.50;;;7.30;99.90;;;;;;5031517;28;20205;-66
2020/12/05 12:53:18;;;;;;;2.92;2.63;;;7.30;99.90;;;;;;5033360;28;20256;-66
2020/12/05 12:55:48;;;;;;;2.25;2.05;;;7.30;99.90;;;;;;5032734;28;20201;-66
2020/12/05 13:00:58;;;;;;;4.55;2.67;;;7.30;99.90;;;;;;5046113;28;20184;-78
2020/12/05 13:03:25;;;;;;;5.33;3.20;;;7.40;99.90;;;;;;5031130;28;20257;-75